createdAt,value
2018-06-20T00:02:40.222Z,1019.76
2018-06-20T00:03:42.230Z,1019.78
2018-06-20T00:04:40.084Z,1019.75
2018-06-20T00:07:22.256Z,1019.74
2018-06-20T00:08:22.216Z,1019.72
2018-06-20T00:09:22.129Z,1019.70
2018-06-20T00:10:22.093Z,1019.69
2018-06-20T00:11:21.950Z,1019.68
2018-06-20T00:12:21.946Z,1019.68
2018-06-20T00:14:46.234Z,1019.62
2018-06-20T00:15:47.276Z,1019.65
2018-06-20T00:16:46.097Z,1019.66
2018-06-20T00:17:48.062Z,1019.64
2018-06-20T00:18:45.931Z,1019.64
2018-06-20T00:31:01.977Z,1019.55
2018-06-20T00:32:02.941Z,1019.54
2018-06-20T00:33:01.794Z,1019.54
2018-06-20T00:34:01.931Z,1019.53
2018-06-20T00:35:01.659Z,1019.54
2018-06-20T00:36:01.694Z,1019.53
2018-06-20T00:37:01.666Z,1019.55
2018-06-20T00:38:01.517Z,1019.57
2018-06-20T00:39:01.357Z,1019.56
2018-06-20T00:41:43.226Z,1019.53
2018-06-20T00:42:43.210Z,1019.55
2018-06-20T00:43:43.100Z,1019.50
2018-06-20T00:44:43.156Z,1019.50
2018-06-20T00:45:42.918Z,1019.48
2018-06-20T00:46:44.974Z,1019.51
2018-06-20T00:47:42.783Z,1019.52
2018-06-20T00:50:24.756Z,1019.50
2018-06-20T00:51:24.739Z,1019.48
2018-06-20T00:52:24.584Z,1019.47
2018-06-20T00:53:24.539Z,1019.44
2018-06-20T00:54:24.466Z,1019.45
2018-06-20T00:55:24.449Z,1019.42
2018-06-20T00:56:24.268Z,1019.44
2018-06-20T00:57:24.264Z,1019.42
2018-06-20T00:58:24.116Z,1019.43
2018-06-20T00:59:24.095Z,1019.45
2018-06-20T01:00:23.967Z,1019.45
2018-06-20T01:01:23.991Z,1019.40
2018-06-20T01:02:23.833Z,1019.34
2018-06-20T01:03:23.783Z,1019.33
2018-06-20T01:04:23.680Z,1019.29
2018-06-20T01:05:23.734Z,1019.30
2018-06-20T01:06:23.500Z,1019.26
2018-06-20T01:07:23.493Z,1019.29
2018-06-20T01:08:23.327Z,1019.26
2018-06-20T01:09:23.347Z,1019.25
2018-06-20T01:10:23.249Z,1019.25
2018-06-20T01:13:05.254Z,1019.26
2018-06-20T01:15:47.282Z,1019.21
2018-06-20T01:16:47.253Z,1019.26
2018-06-20T01:17:47.086Z,1019.24
2018-06-20T01:18:47.167Z,1019.22
2018-06-20T01:19:46.928Z,1019.26
2018-06-20T01:20:46.969Z,1019.24
2018-06-20T01:21:46.796Z,1019.25
2018-06-20T01:22:46.765Z,1019.23
2018-06-20T01:23:46.616Z,1019.26
2018-06-20T01:26:28.778Z,1019.26
2018-06-20T01:29:10.743Z,1019.24
2018-06-20T01:31:52.786Z,1019.31
2018-06-20T01:32:52.740Z,1019.28
2018-06-20T01:33:52.590Z,1019.32
2018-06-20T01:34:52.554Z,1019.29
2018-06-20T01:35:52.435Z,1019.33
2018-06-20T01:36:52.513Z,1019.33
2018-06-20T01:37:52.291Z,1019.33
2018-06-20T01:38:54.325Z,1019.32
2018-06-20T01:39:52.133Z,1019.28
2018-06-20T01:42:34.275Z,1019.24
2018-06-20T01:45:16.247Z,1019.19
2018-06-20T01:48:24.791Z,1019.16
2018-06-20T01:51:06.780Z,1019.20
2018-06-20T01:52:06.816Z,1019.17
2018-06-20T01:53:06.598Z,1019.16
2018-06-20T01:54:07.566Z,1019.14
2018-06-20T01:55:06.448Z,1019.15
2018-06-20T01:57:48.314Z,1019.12
2018-06-20T01:58:48.254Z,1019.16
2018-06-20T01:59:48.102Z,1019.14
2018-06-20T02:00:48.145Z,1019.13
2018-06-20T02:01:47.938Z,1019.13
2018-06-20T02:04:30.278Z,1019.14
2018-06-20T02:13:38.336Z,1019.12
2018-06-20T02:14:38.161Z,1019.11
2018-06-20T02:15:38.180Z,1019.07
2018-06-20T02:16:37.994Z,1019.08
2018-06-20T02:19:20.281Z,1019.08
2018-06-20T02:20:20.291Z,1019.09
2018-06-20T02:21:20.147Z,1019.05
2018-06-20T02:22:20.110Z,1019.05
2018-06-20T02:23:19.946Z,1019.06
2018-06-20T02:24:20.973Z,1019.06
2018-06-20T02:25:19.820Z,1019.06
2018-06-20T02:26:19.883Z,1019.06
2018-06-20T02:27:19.643Z,1019.02
2018-06-20T02:31:05.869Z,1019.01
2018-06-20T02:32:05.700Z,1019.01
2018-06-20T02:34:47.800Z,1019.01
2018-06-20T02:35:48.494Z,1019.04
2018-06-20T02:36:47.712Z,1019.03
2018-06-20T02:39:29.780Z,1019.00
2018-06-20T02:40:29.764Z,1018.98
2018-06-20T02:41:29.662Z,1019.00
2018-06-20T02:42:29.677Z,1019.01
2018-06-20T02:43:29.488Z,1019.01
2018-06-20T02:44:29.481Z,1019.02
2018-06-20T02:45:29.328Z,1019.02
2018-06-20T02:48:11.359Z,1018.97
2018-06-20T02:49:11.265Z,1018.95
2018-06-20T02:50:11.114Z,1018.97
2018-06-20T02:51:11.122Z,1018.96
2018-06-20T02:52:10.977Z,1018.97
2018-06-20T02:53:12.940Z,1018.95
2018-06-20T02:54:10.815Z,1018.94
2018-06-20T02:57:04.418Z,1018.96
2018-06-20T02:58:04.300Z,1018.91
2018-06-20T02:59:04.123Z,1018.92
2018-06-20T03:01:46.274Z,1018.86
2018-06-20T03:02:47.429Z,1018.82
2018-06-20T03:03:46.169Z,1018.85
2018-06-20T03:04:46.093Z,1018.80
2018-06-20T03:05:45.965Z,1018.81
2018-06-20T03:06:51.009Z,1018.82
2018-06-20T03:07:45.846Z,1018.79
2018-06-20T03:08:46.263Z,1018.78
2018-06-20T03:09:45.658Z,1018.81
2018-06-20T03:10:47.770Z,1018.79
2018-06-20T03:11:45.515Z,1018.78
2018-06-20T03:12:45.528Z,1018.80
2018-06-20T03:13:45.398Z,1018.79
2018-06-20T03:14:45.329Z,1018.79
2018-06-20T03:15:45.191Z,1018.78
2018-06-20T03:16:45.135Z,1018.81
2018-06-20T03:17:45.034Z,1018.79
2018-06-20T03:18:45.092Z,1018.79
2018-06-20T03:19:44.894Z,1018.76
2018-06-20T03:20:44.855Z,1018.77
2018-06-20T03:21:44.729Z,1018.79
2018-06-20T03:22:44.762Z,1018.80
2018-06-20T03:23:44.594Z,1018.78
2018-06-20T03:24:44.569Z,1018.80
2018-06-20T03:25:44.430Z,1018.80
2018-06-20T03:26:44.382Z,1018.79
2018-06-20T03:27:44.284Z,1018.76
2018-06-20T03:28:44.292Z,1018.78
2018-06-20T03:29:44.122Z,1018.79
2018-06-20T03:32:26.290Z,1018.77
2018-06-20T03:33:26.336Z,1018.79
2018-06-20T03:34:26.148Z,1018.78
2018-06-20T03:35:26.158Z,1018.81
2018-06-20T03:36:25.980Z,1018.81
2018-06-20T03:37:25.931Z,1018.79
2018-06-20T03:38:25.826Z,1018.79
2018-06-20T03:39:25.846Z,1018.75
2018-06-20T03:40:25.715Z,1018.76
2018-06-20T03:43:07.798Z,1018.79
2018-06-20T03:44:07.745Z,1018.75
2018-06-20T03:45:07.639Z,1018.76
2018-06-20T03:46:08.639Z,1018.76
2018-06-20T03:47:07.498Z,1018.75
2018-06-20T03:49:49.833Z,1018.71
2018-06-20T03:51:14.458Z,1018.71
2018-06-20T03:51:49.653Z,1018.71
2018-06-20T03:54:35.813Z,1018.73
2018-06-20T03:57:54.061Z,1018.75
2018-06-20T03:58:51.741Z,1018.71
2018-06-20T03:59:54.126Z,1018.69
2018-06-20T04:00:51.576Z,1018.69
2018-06-20T04:01:54.285Z,1018.69
2018-06-20T04:02:51.424Z,1018.68
2018-06-20T04:05:37.309Z,1018.65
2018-06-20T04:06:37.322Z,1018.64
2018-06-20T04:07:37.145Z,1018.68
2018-06-20T04:08:37.089Z,1018.66
2018-06-20T04:09:36.986Z,1018.67
2018-06-20T04:12:01.867Z,1018.63
2018-06-20T04:13:01.804Z,1018.63
2018-06-20T04:14:01.662Z,1018.64
2018-06-20T04:15:01.602Z,1018.65
2018-06-20T04:16:01.490Z,1018.63
2018-06-20T04:17:01.590Z,1018.63
2018-06-20T04:18:01.329Z,1018.65
2018-06-20T04:19:01.321Z,1018.61
2018-06-20T04:20:01.179Z,1018.59
2018-06-20T04:21:01.135Z,1018.60
2018-06-20T04:22:01.060Z,1018.63
2018-06-20T04:24:43.326Z,1018.61
2018-06-20T04:25:45.297Z,1018.61
2018-06-20T04:26:43.244Z,1018.61
2018-06-20T04:29:29.330Z,1018.63
2018-06-20T04:30:29.352Z,1018.63
2018-06-20T04:32:56.754Z,1018.65
2018-06-20T04:33:53.769Z,1018.63
2018-06-20T04:36:47.302Z,1018.64
2018-06-20T04:37:50.528Z,1018.63
2018-06-20T04:38:47.145Z,1018.56
2018-06-20T04:39:47.139Z,1018.59
2018-06-20T04:40:47.006Z,1018.54
2018-06-20T04:41:47.049Z,1018.54
2018-06-20T04:42:46.886Z,1018.56
2018-06-20T04:43:48.801Z,1018.53
2018-06-20T04:44:46.680Z,1018.56
2018-06-20T04:45:46.669Z,1018.54
2018-06-20T04:46:46.529Z,1018.57
2018-06-20T04:47:46.609Z,1018.58
2018-06-20T04:48:46.385Z,1018.58
2018-06-20T04:49:46.385Z,1018.56
2018-06-20T04:50:46.258Z,1018.55
2018-06-20T04:53:28.308Z,1018.58
2018-06-20T04:56:10.325Z,1018.60
2018-06-20T04:57:10.284Z,1018.63
2018-06-20T04:58:10.180Z,1018.62
2018-06-20T05:01:04.347Z,1018.62
2018-06-20T05:02:04.265Z,1018.59
2018-06-20T05:03:04.157Z,1018.58
2018-06-20T05:04:04.234Z,1018.58
2018-06-20T05:05:04.007Z,1018.55
2018-06-20T05:06:04.012Z,1018.59
2018-06-20T05:07:03.842Z,1018.60
2018-06-20T05:08:03.789Z,1018.59
2018-06-20T05:09:03.727Z,1018.58
2018-06-20T05:11:45.824Z,1018.59
2018-06-20T05:12:45.810Z,1018.59
2018-06-20T05:13:45.663Z,1018.66
2018-06-20T05:14:46.709Z,1018.60
2018-06-20T05:15:45.512Z,1018.62
2018-06-20T05:16:45.515Z,1018.64
2018-06-20T05:17:45.346Z,1018.65
2018-06-20T05:18:45.342Z,1018.65
2018-06-20T05:19:45.236Z,1018.63
2018-06-20T05:20:45.240Z,1018.59
2018-06-20T05:21:45.043Z,1018.62
2018-06-20T05:22:45.052Z,1018.57
2018-06-20T05:24:44.905Z,1018.58
2018-06-20T05:25:44.727Z,1018.60
2018-06-20T05:40:07.718Z,1018.64
2018-06-20T05:41:07.545Z,1018.67
2018-06-20T05:42:07.576Z,1018.65
2018-06-20T05:43:07.366Z,1018.64
2018-06-20T05:44:07.520Z,1018.65
2018-06-20T05:45:07.207Z,1018.62
2018-06-20T05:47:49.345Z,1018.62
2018-06-20T05:48:49.330Z,1018.63
2018-06-20T05:49:49.179Z,1018.61
2018-06-20T05:50:49.138Z,1018.62
2018-06-20T05:51:49.058Z,1018.56
2018-06-20T05:52:49.034Z,1018.53
2018-06-20T05:53:48.865Z,1018.64
2018-06-20T05:54:48.843Z,1018.56
2018-06-20T05:55:48.710Z,1018.61
2018-06-20T05:56:48.723Z,1018.65
2018-06-20T05:57:48.584Z,1018.61
2018-06-20T06:00:30.856Z,1018.65
2018-06-20T06:01:30.819Z,1018.68
2018-06-20T06:02:30.689Z,1018.63
2018-06-20T06:03:30.674Z,1018.63
2018-06-20T06:04:30.533Z,1018.67
2018-06-20T06:05:30.485Z,1018.66
2018-06-20T06:06:30.391Z,1018.70
2018-06-20T06:07:30.472Z,1018.68
2018-06-20T06:08:30.244Z,1018.70
2018-06-20T06:09:30.205Z,1018.71
2018-06-20T06:11:54.859Z,1018.65
2018-06-20T06:12:54.861Z,1018.69
2018-06-20T06:13:54.769Z,1018.69
2018-06-20T06:14:54.730Z,1018.72
2018-06-20T06:15:54.548Z,1018.74
2018-06-20T06:16:54.558Z,1018.74
2018-06-20T06:17:54.405Z,1018.71
2018-06-20T06:18:54.334Z,1018.73
2018-06-20T06:19:54.260Z,1018.71
2018-06-20T06:20:54.175Z,1018.70
2018-06-20T06:21:54.104Z,1018.71
2018-06-20T06:22:54.052Z,1018.69
2018-06-20T06:23:53.914Z,1018.74
2018-06-20T06:24:54.955Z,1018.74
2018-06-20T06:25:53.773Z,1018.77
2018-06-20T06:26:53.771Z,1018.75
2018-06-20T06:27:53.614Z,1018.75
2018-06-20T06:28:53.620Z,1018.76
2018-06-20T06:29:53.471Z,1018.73
2018-06-20T06:30:53.488Z,1018.70
2018-06-20T06:31:53.348Z,1018.76
2018-06-20T06:32:53.352Z,1018.73
2018-06-20T06:33:53.182Z,1018.75
2018-06-20T06:34:53.221Z,1018.73
2018-06-20T06:35:53.022Z,1018.74
2018-06-20T06:38:34.867Z,1018.73
2018-06-20T06:39:34.816Z,1018.81
2018-06-20T06:40:34.695Z,1018.75
2018-06-20T06:41:34.716Z,1018.78
2018-06-20T06:42:34.584Z,1018.75
2018-06-20T06:43:34.544Z,1018.72
2018-06-20T06:44:34.442Z,1018.76
2018-06-20T06:45:34.450Z,1018.73
2018-06-20T06:46:34.261Z,1018.74
2018-06-20T06:47:34.245Z,1018.81
2018-06-20T06:48:34.114Z,1018.82
2018-06-20T06:49:35.151Z,1018.76
2018-06-20T06:50:33.960Z,1019.19
2018-06-20T06:51:34.015Z,1018.91
2018-06-20T06:52:33.812Z,1018.83
2018-06-20T06:55:15.886Z,1018.94
2018-06-20T06:57:58.040Z,1018.78
2018-06-20T07:24:57.421Z,1019.09
2018-06-20T07:25:57.470Z,1019.09
2018-06-20T07:26:57.498Z,1019.12
2018-06-20T07:27:57.416Z,1019.05
2018-06-20T07:28:57.354Z,1019.07
2018-06-20T07:31:40.012Z,1019.01
2018-06-20T07:34:21.447Z,1018.95
2018-06-20T07:35:21.453Z,1018.95
2018-06-20T07:36:21.281Z,1018.92
2018-06-20T07:37:21.283Z,1018.89
2018-06-20T07:38:21.141Z,1018.96
2018-06-20T07:39:21.092Z,1018.99
2018-06-20T07:40:20.968Z,1018.98
2018-06-20T07:43:02.873Z,1018.95
2018-06-20T07:44:04.876Z,1018.94
2018-06-20T07:45:02.789Z,1018.95
2018-06-20T07:47:27.380Z,1018.83
2018-06-20T07:48:28.518Z,1018.94
2018-06-20T07:49:27.271Z,1018.91
2018-06-20T07:50:27.318Z,1018.96
2018-06-20T07:51:27.103Z,1018.99
2018-06-20T07:52:27.124Z,1018.98
2018-06-20T07:53:27.021Z,1019.00
2018-06-20T07:54:27.064Z,1018.99
2018-06-20T07:55:26.863Z,1019.01
2018-06-20T07:58:08.896Z,1019.07
2018-06-20T07:59:11.632Z,1019.11
2018-06-20T08:00:08.754Z,1019.12
2018-06-20T08:02:54.892Z,1019.16
2018-06-20T08:03:54.936Z,1019.20
2018-06-20T08:04:54.780Z,1019.24
2018-06-20T08:07:36.894Z,1019.26
2018-06-20T08:08:36.980Z,1019.31
2018-06-20T08:09:36.786Z,1019.31
2018-06-20T08:10:36.800Z,1019.35
2018-06-20T08:11:36.661Z,1019.37
2018-06-20T08:12:36.717Z,1019.37
2018-06-20T08:13:36.508Z,1019.23
2018-06-20T08:14:36.510Z,1019.35
2018-06-20T08:15:36.407Z,1019.33
2018-06-20T08:16:36.433Z,1019.33
2018-06-20T08:17:36.238Z,1019.35
2018-06-20T08:18:36.303Z,1019.37
2018-06-20T08:19:36.135Z,1019.33
2018-06-20T08:20:36.092Z,1019.31
2018-06-20T08:21:35.999Z,1019.28
2018-06-20T08:22:35.997Z,1019.20
2018-06-20T08:23:35.839Z,1019.17
2018-06-20T08:24:35.829Z,1019.17
2018-06-20T08:25:35.705Z,1019.15
2018-06-20T08:26:35.778Z,1019.12
2018-06-20T08:27:35.592Z,1019.16
2018-06-20T08:28:35.641Z,1019.16
2018-06-20T08:29:35.478Z,1019.18
2018-06-20T08:30:35.525Z,1019.13
2018-06-20T08:31:35.352Z,1019.04
2018-06-20T08:32:35.359Z,1019.04
2018-06-20T08:33:35.216Z,1019.11
2018-06-20T08:34:35.186Z,1019.15
2018-06-20T08:35:35.080Z,1019.05
2018-06-20T08:36:35.099Z,1018.55
2018-06-20T08:37:34.944Z,1018.93
2018-06-20T08:40:16.917Z,1018.41
2018-06-20T08:41:16.953Z,1018.34
2018-06-20T08:42:16.827Z,1018.33
2018-06-20T08:43:16.826Z,1018.84
2018-06-20T08:44:16.657Z,1018.76
2018-06-20T08:46:58.932Z,1018.87
2018-06-20T08:47:58.921Z,1018.77
2018-06-20T08:48:58.826Z,1018.76
2018-06-20T08:49:58.818Z,1018.37
2018-06-20T08:50:58.635Z,1018.43
2018-06-20T08:51:58.713Z,1018.36
2018-06-20T08:52:58.586Z,1018.80
2018-06-20T08:53:58.550Z,1018.69
2018-06-20T08:54:58.380Z,1018.66
2018-06-20T08:55:58.467Z,1018.66
2018-06-20T08:56:58.372Z,1018.66
2018-06-20T08:57:58.278Z,1018.63
2018-06-20T08:58:58.123Z,1018.63
2018-06-20T08:59:58.165Z,1018.65
2018-06-20T09:00:58.012Z,1018.67
2018-06-20T09:01:58.008Z,1018.69
2018-06-20T09:02:57.882Z,1018.67
2018-06-20T09:03:57.886Z,1018.71
2018-06-20T09:04:57.745Z,1018.67
2018-06-20T09:05:59.777Z,1018.62
2018-06-20T09:06:57.645Z,1018.65
2018-06-20T09:07:57.627Z,1018.56
2018-06-20T09:08:57.488Z,1018.64
2018-06-20T09:09:57.509Z,1018.66
2018-06-20T09:10:57.358Z,1018.62
2018-06-20T09:11:57.444Z,1018.66
2018-06-20T09:12:57.265Z,1018.20
2018-06-20T09:14:02.582Z,1018.17
2018-06-20T09:14:57.115Z,1018.58
2018-06-20T09:17:43.431Z,1018.68
2018-06-20T09:18:53.115Z,1018.67
2018-06-20T09:19:43.290Z,1018.69
2018-06-20T09:20:51.325Z,1018.70
2018-06-20T09:21:43.187Z,1018.74
2018-06-20T09:22:43.175Z,1018.65
2018-06-20T09:23:43.070Z,1018.11
2018-06-20T09:26:24.915Z,1018.75
2018-06-20T09:29:06.956Z,1018.20
2018-06-20T09:30:07.046Z,1018.16
2018-06-20T09:31:06.791Z,1018.13
2018-06-20T09:32:06.777Z,1018.10
2018-06-20T09:33:06.693Z,1018.86
2018-06-20T09:34:06.764Z,1018.85
2018-06-20T09:35:06.549Z,1018.47
2018-06-20T09:36:06.508Z,1018.84
2018-06-20T09:37:06.399Z,1018.91
2018-06-20T09:38:06.419Z,1018.81
2018-06-20T09:39:06.291Z,1018.83
2018-06-20T09:40:06.363Z,1018.83
2018-06-20T09:41:06.165Z,1018.28
2018-06-20T09:43:48.466Z,1018.52
2018-06-20T09:44:48.473Z,1018.90
2018-06-20T09:45:48.307Z,1018.51
2018-06-20T09:46:48.351Z,1018.11
2018-06-20T09:47:48.163Z,1018.32
2018-06-20T09:48:48.161Z,1018.09
2018-06-20T09:49:48.043Z,1018.12
2018-06-20T09:50:48.111Z,1018.07
2018-06-20T09:51:47.910Z,1018.09
2018-06-20T09:52:47.959Z,1018.83
2018-06-20T09:53:47.794Z,1018.80
2018-06-20T09:56:29.985Z,1017.92
2018-06-20T09:59:11.928Z,1017.97
2018-06-20T10:00:11.917Z,1017.96
2018-06-20T10:01:11.860Z,1018.21
2018-06-20T10:02:11.925Z,1017.99
2018-06-20T10:03:11.689Z,1018.76
2018-06-20T10:05:54.043Z,1018.80
2018-06-20T10:06:53.997Z,1018.74
2018-06-20T10:07:53.812Z,1018.75
2018-06-20T10:10:47.461Z,1018.70
2018-06-20T10:11:47.429Z,1018.61
2018-06-20T10:12:47.310Z,1018.63
2018-06-20T10:13:49.352Z,1018.06
2018-06-20T10:14:47.181Z,1017.88
2018-06-20T10:15:49.149Z,1018.63
2018-06-20T10:16:47.088Z,1018.61
2018-06-20T10:17:47.012Z,1018.66
2018-06-20T10:18:46.932Z,1018.54
2018-06-20T10:21:29.008Z,1018.64
2018-06-20T10:22:28.975Z,1017.96
2018-06-20T10:23:28.832Z,1017.78
2018-06-20T10:24:28.830Z,1017.84
2018-06-20T10:25:28.690Z,1017.72
2018-06-20T10:26:29.696Z,1017.83
2018-06-20T10:27:28.553Z,1017.86
2018-06-20T10:30:10.454Z,1017.89
2018-06-20T10:32:52.473Z,1018.61
2018-06-20T10:35:34.496Z,1017.79
2018-06-20T10:36:34.425Z,1017.77
2018-06-20T10:37:34.347Z,1018.47
2018-06-20T10:38:34.344Z,1018.29
2018-06-20T10:39:34.184Z,1017.77
2018-06-20T10:40:34.126Z,1018.23
2018-06-20T10:41:34.077Z,1017.68
2018-06-20T10:42:34.064Z,1017.69
2018-06-20T10:43:33.959Z,1017.66
2018-06-20T10:46:16.012Z,1017.67
2018-06-20T10:47:15.984Z,1018.40
2018-06-20T10:48:15.894Z,1018.17
2018-06-20T10:49:15.954Z,1017.62
2018-06-20T10:50:15.685Z,1017.63
2018-06-20T10:51:15.728Z,1017.61
2018-06-20T10:52:15.549Z,1017.61
2018-06-20T10:53:15.544Z,1017.57
2018-06-20T10:54:15.497Z,1017.57
2018-06-20T10:55:15.358Z,1018.21
2018-06-20T10:56:15.287Z,1018.20
2018-06-20T10:57:15.334Z,1017.62
2018-06-20T10:58:15.165Z,1017.48
2018-06-20T11:00:57.481Z,1017.37
2018-06-20T11:01:57.470Z,1017.46
2018-06-20T11:02:57.325Z,1017.84
2018-06-20T11:05:39.547Z,1017.41
2018-06-20T11:06:39.455Z,1018.03
2018-06-20T11:07:39.314Z,1018.14
2018-06-20T11:08:39.365Z,1018.09
2018-06-20T11:09:39.275Z,1018.18
2018-06-20T11:10:39.185Z,1018.12
2018-06-20T11:11:39.050Z,1017.50
2018-06-20T11:14:20.988Z,1017.99
2018-06-20T11:15:22.102Z,1017.31
2018-06-20T11:16:20.827Z,1017.28
2018-06-20T11:17:20.889Z,1017.30
2018-06-20T11:18:20.705Z,1018.03
2018-06-20T11:19:20.697Z,1017.36
2018-06-20T11:20:20.596Z,1017.30
2018-06-20T11:21:20.606Z,1017.95
2018-06-20T11:22:20.446Z,1018.00
2018-06-20T11:23:20.427Z,1017.94
2018-06-20T11:24:20.306Z,1017.71
2018-06-20T11:25:20.358Z,1017.94
2018-06-20T11:26:20.163Z,1017.91
2018-06-20T11:27:20.239Z,1017.91
2018-06-20T11:28:20.033Z,1017.83
2018-06-20T11:29:20.138Z,1017.81
2018-06-20T11:30:19.954Z,1017.83
2018-06-20T11:31:19.975Z,1017.18
2018-06-20T11:32:19.797Z,1017.17
2018-06-20T11:33:19.765Z,1017.14
2018-06-20T11:34:19.671Z,1017.79
2018-06-20T11:35:19.669Z,1017.51
2018-06-20T11:36:19.512Z,1017.77
2018-06-20T11:37:20.543Z,1017.77
2018-06-20T11:38:19.421Z,1017.15
2018-06-20T11:39:19.394Z,1017.36
2018-06-20T11:40:19.263Z,1017.75
2018-06-20T11:41:19.301Z,1017.76
2018-06-20T11:42:19.167Z,1017.67
2018-06-20T11:43:19.153Z,1017.37
2018-06-20T11:44:19.025Z,1017.10
2018-06-20T11:45:19.016Z,1017.07
2018-06-20T11:46:18.904Z,1016.99
2018-06-20T11:47:18.942Z,1016.96
2018-06-20T11:48:18.772Z,1017.02
2018-06-20T11:49:18.747Z,1016.95
2018-06-20T11:50:18.621Z,1016.92
2018-06-20T11:51:18.703Z,1016.88
2018-06-20T11:52:18.519Z,1016.95
2018-06-20T11:55:00.488Z,1016.84
2018-06-20T11:56:00.473Z,1016.81
2018-06-20T11:57:00.358Z,1016.79
2018-06-20T11:58:00.392Z,1016.72
2018-06-20T11:59:00.232Z,1016.76
2018-06-20T12:00:00.281Z,1016.85
2018-06-20T12:01:00.159Z,1016.74
2018-06-20T12:02:00.164Z,1016.72
2018-06-20T12:02:59.959Z,1016.69
2018-06-20T12:04:00.125Z,1016.76
2018-06-20T12:04:59.858Z,1016.73
2018-06-20T12:07:42.031Z,1016.67
2018-06-20T12:10:24.088Z,1016.67
2018-06-20T12:11:24.062Z,1016.66
2018-06-20T12:12:24.058Z,1016.64
2018-06-20T12:13:23.884Z,1016.55
2018-06-20T12:14:23.705Z,1016.52
2018-06-20T12:15:23.800Z,1016.49
2018-06-20T12:16:23.569Z,1016.46
2018-06-20T12:17:23.702Z,1016.43
2018-06-20T12:18:23.474Z,1016.47
2018-06-20T12:19:23.462Z,1016.52
2018-06-20T12:20:23.302Z,1016.44
2018-06-20T12:21:23.734Z,1016.44
2018-06-20T12:22:23.254Z,1016.43
2018-06-20T12:25:05.034Z,1016.45
2018-06-20T12:26:04.972Z,1016.44
2018-06-20T12:27:04.877Z,1016.42
2018-06-20T12:28:04.938Z,1016.34
2018-06-20T12:29:04.886Z,1016.35
2018-06-20T12:30:04.646Z,1016.32
2018-06-20T12:31:04.565Z,1016.34
2018-06-20T12:32:05.675Z,1016.31
2018-06-20T12:33:04.461Z,1016.32
2018-06-20T12:34:04.434Z,1016.28
2018-06-20T12:35:04.289Z,1016.34
2018-06-20T12:36:04.328Z,1016.33
2018-06-20T12:37:04.170Z,1016.31
2018-06-20T12:39:46.099Z,1016.24
2018-06-20T12:40:46.116Z,1016.28
2018-06-20T12:41:45.849Z,1016.20
2018-06-20T12:42:45.832Z,1016.13
2018-06-20T12:43:45.726Z,1016.19
2018-06-20T12:44:45.766Z,1016.20
2018-06-20T12:45:45.569Z,1016.24
2018-06-20T12:48:27.711Z,1016.23
2018-06-20T12:49:27.572Z,1016.23
2018-06-20T12:50:27.393Z,1016.25
2018-06-20T12:51:27.355Z,1016.25
2018-06-20T12:52:27.320Z,1016.20
2018-06-20T12:55:09.557Z,1016.15
2018-06-20T12:56:09.464Z,1016.10
2018-06-20T12:57:09.364Z,1016.16
2018-06-20T12:58:09.414Z,1016.12
2018-06-20T12:59:09.211Z,1016.15
2018-06-20T13:01:35.603Z,1016.15
2018-06-20T13:01:36.205Z,1016.16
2018-06-20T13:02:36.132Z,1016.17
2018-06-20T13:03:36.009Z,1016.11
2018-06-20T13:06:18.037Z,1016.06
2018-06-20T13:07:19.980Z,1016.11
2018-06-20T13:08:17.946Z,1016.06
2018-06-20T13:09:17.848Z,1016.06
2018-06-20T13:10:17.724Z,1016.02
2018-06-20T13:11:17.904Z,1015.99
2018-06-20T13:12:17.571Z,1016.02
2018-06-20T13:13:17.568Z,1016.07
2018-06-20T13:14:17.472Z,1016.03
2018-06-20T13:15:17.525Z,1015.99
2018-06-20T13:16:17.312Z,1016.03
2018-06-20T13:17:17.257Z,1015.97
2018-06-20T13:18:17.179Z,1016.00
2018-06-20T13:19:17.189Z,1016.05
2018-06-20T13:20:17.090Z,1016.02
2018-06-20T13:22:59.071Z,1015.95
2018-06-20T13:24:00.056Z,1015.95
2018-06-20T13:24:58.889Z,1015.90
2018-06-20T13:27:41.019Z,1015.89
2018-06-20T13:28:42.062Z,1015.87
2018-06-20T13:29:40.921Z,1015.91
2018-06-20T13:30:40.999Z,1015.88
2018-06-20T13:31:40.824Z,1015.91
2018-06-20T13:34:23.042Z,1015.85
2018-06-20T13:35:23.031Z,1015.87
2018-06-20T13:36:22.976Z,1015.86
2018-06-20T13:37:22.841Z,1015.82
2018-06-20T13:38:22.760Z,1015.82
2018-06-20T13:39:22.802Z,1015.78
2018-06-20T13:40:22.593Z,1015.75
2018-06-20T13:41:22.553Z,1015.81
2018-06-20T13:42:22.462Z,1015.79
2018-06-20T13:43:22.483Z,1015.76
2018-06-20T13:44:22.372Z,1015.80
2018-06-20T13:45:22.400Z,1015.79
2018-06-20T13:46:22.185Z,1015.78
2018-06-20T13:47:22.363Z,1015.75
2018-06-20T13:48:22.103Z,1015.77
2018-06-20T13:49:22.047Z,1015.69
2018-06-20T13:50:21.879Z,1015.68
2018-06-20T13:51:26.935Z,1015.65
2018-06-20T13:52:21.749Z,1015.64
2018-06-20T13:55:15.536Z,1015.65
2018-06-20T13:56:15.669Z,1015.68
2018-06-20T13:57:15.395Z,1015.63
2018-06-20T13:58:15.437Z,1015.65
2018-06-20T13:59:15.320Z,1015.63
2018-06-20T14:01:40.163Z,1015.64
2018-06-20T14:01:40.652Z,1015.63
2018-06-20T14:02:41.725Z,1015.57
2018-06-20T14:03:40.514Z,1015.54
2018-06-20T14:04:40.555Z,1015.50
2018-06-20T14:05:40.372Z,1015.54
2018-06-20T14:06:40.340Z,1015.53
2018-06-20T14:07:40.211Z,1015.47
2018-06-20T14:08:40.551Z,1015.49
2018-06-20T14:09:40.105Z,1015.50
2018-06-20T14:10:41.123Z,1015.58
2018-06-20T14:11:39.924Z,1015.53
2018-06-20T14:14:22.052Z,1015.55
2018-06-20T14:15:22.130Z,1015.49
2018-06-20T14:16:21.876Z,1015.46
2018-06-20T14:17:21.887Z,1015.45
2018-06-20T14:18:21.761Z,1015.47
2018-06-20T14:19:21.774Z,1015.50
2018-06-20T14:20:21.623Z,1015.53
2018-06-20T14:21:23.703Z,1015.48
2018-06-20T14:22:21.460Z,1015.47
2018-06-20T14:23:21.534Z,1015.48
2018-06-20T14:24:21.351Z,1015.50
2018-06-20T14:27:03.539Z,1015.48
2018-06-20T14:29:45.582Z,1015.51
2018-06-20T14:31:42.624Z,1015.45
2018-06-20T14:31:45.425Z,1015.44
2018-06-20T14:32:45.430Z,1015.48
2018-06-20T14:33:45.291Z,1015.45
2018-06-20T14:34:45.222Z,1015.39
2018-06-20T14:35:45.118Z,1015.40
2018-06-20T14:36:45.173Z,1015.40
2018-06-20T14:37:44.964Z,1015.36
2018-06-20T14:38:45.069Z,1015.39
2018-06-20T14:39:44.852Z,1015.34
2018-06-20T14:40:44.858Z,1015.39
2018-06-20T14:41:44.691Z,1015.34
2018-06-20T14:42:44.671Z,1015.26
2018-06-20T14:43:44.549Z,1015.32
2018-06-20T14:46:26.609Z,1015.21
2018-06-20T14:47:26.579Z,1015.22
2018-06-20T14:48:26.431Z,1015.23
2018-06-20T14:51:08.606Z,1015.22
2018-06-20T14:53:50.549Z,1015.18
2018-06-20T14:54:50.591Z,1015.18
2018-06-20T14:55:50.417Z,1015.16
2018-06-20T14:56:50.396Z,1015.16
2018-06-20T14:57:50.276Z,1015.15
2018-06-20T14:58:50.310Z,1015.14
2018-06-20T14:59:50.152Z,1015.09
2018-06-20T15:00:50.160Z,1015.17
2018-06-20T15:01:50.006Z,1015.19
2018-06-20T15:04:32.053Z,1015.12
2018-06-20T15:05:32.011Z,1015.13
2018-06-20T15:06:31.941Z,1015.15
2018-06-20T15:09:14.050Z,1015.11
2018-06-20T15:10:14.039Z,1015.10
2018-06-20T15:11:14.092Z,1015.03
2018-06-20T15:12:13.937Z,1015.07
2018-06-20T15:13:13.773Z,1015.08
2018-06-20T15:14:13.776Z,1015.07
2018-06-20T15:15:13.637Z,1015.04
2018-06-20T15:16:13.693Z,1015.06
2018-06-20T15:17:13.478Z,1015.04
2018-06-20T15:18:15.518Z,1015.10
2018-06-20T15:19:13.341Z,1015.04
2018-06-20T15:20:13.459Z,1014.97
2018-06-20T15:21:13.263Z,1014.98
2018-06-20T15:22:15.252Z,1014.91
2018-06-20T15:23:13.046Z,1014.88
2018-06-20T15:24:15.013Z,1014.93
2018-06-20T15:25:12.905Z,1014.90
2018-06-20T15:27:55.116Z,1014.91
2018-06-20T15:30:37.071Z,1014.83
2018-06-20T15:31:38.073Z,1014.82
2018-06-20T15:32:36.927Z,1014.79
2018-06-20T15:33:36.928Z,1014.79
2018-06-20T15:34:36.780Z,1014.76
2018-06-20T15:35:36.732Z,1014.75
2018-06-20T15:36:36.662Z,1014.76
2018-06-20T15:37:36.682Z,1014.74
2018-06-20T15:38:36.482Z,1014.70
2018-06-20T15:39:36.454Z,1014.72
2018-06-20T15:40:36.337Z,1014.74
2018-06-20T15:41:36.458Z,1014.72
2018-06-20T15:42:36.207Z,1014.70